createdAt,value
2022-12-23T00:01:14.649Z,72.50
2022-12-23T00:03:47.413Z,69.60
2022-12-23T00:06:17.959Z,63.40
2022-12-23T00:08:46.946Z,61.50
2022-12-23T00:11:20.910Z,60.50
2022-12-23T00:14:08.224Z,60.80
2022-12-23T00:16:37.563Z,59.20
2022-12-23T00:19:06.175Z,61.60
2022-12-23T00:21:36.651Z,62.60
2022-12-23T00:24:07.926Z,57.00
2022-12-23T00:26:37.087Z,64.50
2022-12-23T00:29:06.655Z,60.60
2022-12-23T00:31:36.660Z,61.90
2022-12-23T00:34:04.821Z,62.40
2022-12-23T00:36:33.051Z,64.80
2022-12-23T00:39:20.262Z,58.10
2022-12-23T00:42:07.071Z,57.60
2022-12-23T00:44:36.392Z,59.70
2022-12-23T00:47:04.887Z,64.80
2022-12-23T00:49:45.067Z,59.20
2022-12-23T00:52:18.764Z,59.80
2022-12-23T00:54:48.079Z,61.70
2022-12-23T00:57:16.297Z,58.30
2022-12-23T00:59:44.552Z,58.30
2022-12-23T01:02:31.614Z,57.20
2022-12-23T01:05:18.737Z,62.90
2022-12-23T01:07:46.925Z,58.20
2022-12-23T01:10:15.232Z,55.80
2022-12-23T01:12:43.369Z,58.30
2022-12-23T01:15:11.503Z,60.90
2022-12-23T01:17:39.650Z,57.70
2022-12-23T01:20:08.910Z,55.50
2022-12-23T01:22:37.280Z,56.30
2022-12-23T01:25:06.206Z,55.50
2022-12-23T01:27:34.454Z,64.40
2022-12-23T01:30:03.446Z,61.00
2022-12-23T01:32:32.062Z,65.10
2022-12-23T01:35:02.650Z,58.00
2022-12-23T01:37:30.949Z,60.30
2022-12-23T01:39:59.102Z,61.00
2022-12-23T01:42:45.333Z,68.30
2022-12-23T01:45:20.239Z,65.50
2022-12-23T01:48:16.858Z,65.80
2022-12-23T01:51:05.152Z,60.40
2022-12-23T01:53:43.473Z,63.50
2022-12-23T01:56:18.801Z,69.00
2022-12-23T01:58:59.495Z,66.60
2022-12-23T02:01:48.496Z,68.50
2022-12-23T02:04:23.139Z,70.80
2022-12-23T02:07:10.568Z,66.30
2022-12-23T02:09:40.587Z,67.70
2022-12-23T02:12:14.844Z,68.80
2022-12-23T02:15:17.521Z,63.30
2022-12-23T02:18:26.462Z,68.00
2022-12-23T02:21:38.651Z,70.70
2022-12-23T02:24:31.485Z,65.50
2022-12-23T02:27:30.359Z,64.10
2022-12-23T02:30:39.177Z,61.50
2022-12-23T02:33:30.124Z,68.50
2022-12-23T02:36:17.834Z,70.80
2022-12-23T02:39:05.168Z,61.00
2022-12-23T02:41:53.837Z,72.40
2022-12-23T02:44:35.547Z,67.40
2022-12-23T02:47:26.162Z,76.20
2022-12-23T02:50:06.286Z,69.60
2022-12-23T02:52:38.009Z,71.40
2022-12-23T02:55:17.746Z,68.30
2022-12-23T02:57:51.142Z,67.70
2022-12-23T03:00:19.933Z,68.40
2022-12-23T03:02:48.870Z,66.20
2022-12-23T03:05:29.035Z,63.70
2022-12-23T03:08:03.048Z,65.50
2022-12-23T03:11:03.207Z,63.30
2022-12-23T03:13:46.665Z,67.10
2022-12-23T03:16:29.006Z,59.70
2022-12-23T03:19:28.106Z,54.80
2022-12-23T03:22:15.067Z,71.30
2022-12-23T03:25:02.071Z,58.20
2022-12-23T03:27:46.770Z,63.50
2022-12-23T03:30:19.689Z,63.10
2022-12-23T03:33:19.653Z,62.30
2022-12-23T03:35:56.753Z,64.90
2022-12-23T03:38:26.787Z,65.20
2022-12-23T03:41:00.936Z,63.50
2022-12-23T03:43:37.029Z,60.70
2022-12-23T03:46:14.892Z,62.10
2022-12-23T03:48:53.169Z,62.50
2022-12-23T03:51:29.425Z,66.30
2022-12-23T03:54:10.145Z,66.60
2022-12-23T03:56:50.018Z,68.50
2022-12-23T03:59:24.413Z,60.60
2022-12-23T04:02:18.397Z,55.20
2022-12-23T04:04:54.317Z,54.30
2022-12-23T04:07:46.315Z,59.70
2022-12-23T04:10:14.933Z,57.30
2022-12-23T04:12:44.586Z,58.40
2022-12-23T04:15:13.561Z,56.30
2022-12-23T04:17:41.966Z,60.80
2022-12-23T04:20:11.099Z,63.70
2022-12-23T04:22:39.770Z,64.60
2022-12-23T04:25:08.686Z,61.60
2022-12-23T04:27:37.176Z,66.20
2022-12-23T04:30:09.367Z,58.70
2022-12-23T04:32:38.265Z,61.00
2022-12-23T04:35:07.273Z,64.00
2022-12-23T04:37:35.655Z,62.10
2022-12-23T04:40:06.206Z,62.80
2022-12-23T04:42:35.066Z,65.00
2022-12-23T04:45:03.855Z,57.50
2022-12-23T04:47:32.185Z,62.70
2022-12-23T04:50:00.367Z,60.70
2022-12-23T04:52:28.649Z,61.50
2022-12-23T04:54:56.772Z,65.10
2022-12-23T04:57:25.013Z,62.40
2022-12-23T04:59:53.165Z,62.50
2022-12-23T05:02:21.449Z,65.60
2022-12-23T05:04:49.815Z,62.80
2022-12-23T05:07:18.130Z,61.50
2022-12-23T05:09:46.471Z,62.40
2022-12-23T05:12:14.668Z,61.30
2022-12-23T05:14:42.999Z,64.50
2022-12-23T05:17:12.521Z,58.80
2022-12-23T05:19:40.597Z,62.00
2022-12-23T05:22:09.966Z,59.90
2022-12-23T05:24:38.878Z,60.80
2022-12-23T05:27:07.142Z,62.40
2022-12-23T05:29:35.453Z,62.00
2022-12-23T05:32:05.620Z,63.10
2022-12-23T05:34:34.198Z,60.70
2022-12-23T05:37:02.384Z,59.80
2022-12-23T05:39:30.959Z,61.00
2022-12-23T05:41:59.167Z,62.30
2022-12-23T05:44:27.328Z,63.80
2022-12-23T05:46:55.468Z,56.80
2022-12-23T05:49:25.425Z,60.70
2022-12-23T05:51:53.642Z,62.70
2022-12-23T05:54:21.818Z,62.00
2022-12-23T05:56:49.981Z,62.10
2022-12-23T05:59:18.097Z,59.20
2022-12-23T06:01:46.391Z,60.90
2022-12-23T06:04:14.803Z,65.80
2022-12-23T06:06:43.142Z,63.20
2022-12-23T06:09:11.395Z,68.50
2022-12-23T06:11:39.529Z,65.60
2022-12-23T06:14:07.660Z,62.90
2022-12-23T06:16:36.064Z,64.60
2022-12-23T06:19:04.573Z,64.60
2022-12-23T06:21:33.217Z,62.00
2022-12-23T06:24:01.426Z,65.90
2022-12-23T06:26:31.504Z,58.30
2022-12-23T06:29:00.134Z,65.70
2022-12-23T06:31:28.303Z,63.80
2022-12-23T06:33:56.538Z,58.10
2022-12-23T06:36:25.101Z,58.10
2022-12-23T06:38:53.614Z,68.40
2022-12-23T06:41:21.881Z,68.10
2022-12-23T06:43:54.600Z,64.50
2022-12-23T06:46:23.227Z,64.80
2022-12-23T06:48:54.798Z,68.60
2022-12-23T06:51:23.562Z,67.30
2022-12-23T06:53:52.253Z,66.40
2022-12-23T06:56:20.782Z,63.50
2022-12-23T06:58:48.939Z,61.00
2022-12-23T07:01:17.109Z,66.10
2022-12-23T07:03:45.735Z,72.40
2022-12-23T07:06:14.151Z,62.50
2022-12-23T07:08:42.255Z,67.40
2022-12-23T07:11:10.676Z,65.00
2022-12-23T07:13:41.723Z,62.70
2022-12-23T07:16:09.994Z,61.70
2022-12-23T07:18:38.171Z,65.10
2022-12-23T07:21:10.594Z,60.80
2022-12-23T07:23:46.816Z,66.60
2022-12-23T07:26:15.861Z,64.40
2022-12-23T07:28:47.919Z,60.20
2022-12-23T07:31:16.545Z,59.30
2022-12-23T07:33:44.836Z,58.40
2022-12-23T07:36:13.353Z,63.60
2022-12-23T07:38:41.636Z,66.90
2022-12-23T07:41:09.757Z,65.70
2022-12-23T07:43:38.017Z,66.80
2022-12-23T07:46:08.832Z,50.50
2022-12-23T07:48:37.083Z,63.80
2022-12-23T07:51:05.612Z,61.30
2022-12-23T07:53:33.974Z,71.20
2022-12-23T07:56:02.205Z,67.50
2022-12-23T07:58:30.323Z,63.70
2022-12-23T08:01:10.142Z,64.60
2022-12-23T08:03:38.397Z,67.50
2022-12-23T08:06:14.442Z,65.60
2022-12-23T08:08:45.907Z,63.60
2022-12-23T08:11:15.787Z,70.00
2022-12-23T08:13:45.994Z,68.90
2022-12-23T08:16:14.450Z,68.10
2022-12-23T08:18:42.761Z,65.10
2022-12-23T08:21:19.223Z,68.00
2022-12-23T08:23:48.809Z,66.00
2022-12-23T08:26:21.340Z,59.00
2022-12-23T08:28:53.480Z,68.80
2022-12-23T08:31:26.224Z,65.70
2022-12-23T08:33:57.103Z,72.00
2022-12-23T08:36:32.518Z,68.30
2022-12-23T08:39:05.678Z,59.60
2022-12-23T08:41:39.104Z,70.00
2022-12-23T08:44:08.946Z,65.80
2022-12-23T08:46:37.570Z,71.70
2022-12-23T08:49:07.430Z,79.40
2022-12-23T08:51:37.346Z,58.60
2022-12-23T08:54:06.647Z,65.70
2022-12-23T08:56:40.170Z,72.30
2022-12-23T08:59:19.134Z,68.10
2022-12-23T09:01:48.626Z,75.30
2022-12-23T09:04:17.148Z,63.20
2022-12-23T09:06:45.756Z,65.60
2022-12-23T09:09:15.926Z,69.90
2022-12-23T09:11:44.339Z,59.60
2022-12-23T09:14:12.960Z,66.80
2022-12-23T09:16:41.343Z,60.80
2022-12-23T09:19:09.552Z,53.40
2022-12-23T09:21:37.780Z,62.40
2022-12-23T09:24:06.682Z,56.80
2022-12-23T09:26:34.977Z,64.80
2022-12-23T09:29:03.463Z,57.10
2022-12-23T09:31:36.777Z,60.70
2022-12-23T09:34:06.802Z,55.90
2022-12-23T09:36:35.059Z,68.70
2022-12-23T09:39:03.955Z,62.10
2022-12-23T09:41:54.917Z,67.20
2022-12-23T09:44:55.318Z,69.30
2022-12-23T09:47:26.747Z,71.30
2022-12-23T09:50:29.746Z,72.80
2022-12-23T09:56:16.070Z,52.20
2022-12-23T09:59:17.421Z,66.70
2022-12-23T10:02:00.448Z,67.20
2022-12-23T10:05:03.010Z,61.10
2022-12-23T10:07:48.524Z,64.20
2022-12-23T10:10:22.675Z,65.60
2022-12-23T10:12:53.984Z,67.80
2022-12-23T10:15:35.037Z,63.70
2022-12-23T10:18:20.579Z,64.80
2022-12-23T10:20:57.842Z,67.20
2022-12-23T10:23:42.754Z,68.10
2022-12-23T10:26:34.510Z,70.30
2022-12-23T10:29:19.424Z,70.10
2022-12-23T10:32:06.482Z,65.50
2022-12-23T10:34:59.966Z,65.50
2022-12-23T10:37:53.887Z,59.50
2022-12-23T10:40:53.016Z,64.60
2022-12-23T10:43:30.209Z,58.10
2022-12-23T10:46:26.707Z,52.00
2022-12-23T10:49:18.667Z,64.40
2022-12-23T10:51:57.618Z,61.90
2022-12-23T10:54:35.052Z,54.60
2022-12-23T10:57:07.262Z,61.80
2022-12-23T10:59:37.580Z,66.00
2022-12-23T11:02:11.920Z,60.00
2022-12-23T11:04:50.715Z,59.60
2022-12-23T11:07:44.759Z,59.80
2022-12-23T11:10:25.779Z,60.90
2022-12-23T11:12:55.005Z,55.40
2022-12-23T11:15:38.652Z,56.80
2022-12-23T11:18:12.844Z,57.70
2022-12-23T11:20:49.395Z,54.10
2022-12-23T11:23:35.890Z,53.30
2022-12-23T11:26:10.061Z,57.90
2022-12-23T11:28:48.434Z,54.80
2022-12-23T11:31:28.177Z,55.70
2022-12-23T11:34:01.253Z,46.20
2022-12-23T11:36:31.516Z,51.20
2022-12-23T11:39:22.926Z,51.00
2022-12-23T11:42:02.970Z,57.90
2022-12-23T11:44:39.363Z,48.30
2022-12-23T11:47:23.670Z,57.30
2022-12-23T11:49:57.467Z,59.00
2022-12-23T11:52:29.082Z,53.40
2022-12-23T11:55:03.005Z,56.20
2022-12-23T11:57:48.504Z,48.70
2022-12-23T12:00:34.943Z,51.10
2022-12-23T12:03:06.248Z,52.80
2022-12-23T12:05:47.641Z,46.10
2022-12-23T12:08:22.618Z,54.90
2022-12-23T12:10:53.368Z,50.00
2022-12-23T12:13:36.604Z,57.40
2022-12-23T12:16:30.656Z,50.10
2022-12-23T12:19:07.623Z,52.10
2022-12-23T12:21:39.104Z,51.00
2022-12-23T12:24:39.005Z,52.90
2022-12-23T12:27:10.389Z,50.70
2022-12-23T12:30:01.078Z,48.00
2022-12-23T12:33:05.373Z,48.30
2022-12-23T12:36:07.173Z,49.50
2022-12-23T12:38:48.960Z,55.10
2022-12-23T12:41:29.428Z,53.00
2022-12-23T12:44:07.803Z,53.40
2022-12-23T12:46:47.748Z,50.80
2022-12-23T12:49:38.622Z,46.30
2022-12-23T12:52:20.703Z,47.90
2022-12-23T12:55:28.475Z,50.20
2022-12-23T12:57:56.720Z,51.00
2022-12-23T13:00:25.420Z,52.40
2022-12-23T13:03:47.553Z,56.70
2022-12-23T13:06:56.819Z,48.30
2022-12-23T13:09:57.374Z,54.00
2022-12-23T13:13:07.798Z,48.20
2022-12-23T13:15:46.719Z,51.10
2022-12-23T13:18:43.765Z,51.10
2022-12-23T13:21:38.776Z,49.00
2022-12-23T13:24:22.338Z,48.90
2022-12-23T13:27:17.691Z,50.70
2022-12-23T13:30:07.002Z,49.30
2022-12-23T13:32:56.270Z,49.20
2022-12-23T13:36:02.927Z,53.80
2022-12-23T13:39:01.110Z,54.10
2022-12-23T13:41:48.567Z,59.90
2022-12-23T13:44:18.797Z,49.20
2022-12-23T13:47:25.009Z,51.20
2022-12-23T13:50:09.564Z,51.40
2022-12-23T13:53:24.888Z,48.30
2022-12-23T13:56:24.243Z,51.60
2022-12-23T13:58:53.114Z,49.70
2022-12-23T14:01:41.576Z,51.70
2022-12-23T14:04:59.229Z,55.30
2022-12-23T14:07:30.819Z,55.70
2022-12-23T14:10:19.992Z,51.80
2022-12-23T14:12:58.388Z,52.80
2022-12-23T14:16:04.682Z,54.80
2022-12-23T14:19:21.102Z,48.70
2022-12-23T14:22:36.187Z,55.90
2022-12-23T14:25:39.681Z,53.50
2022-12-23T14:28:43.530Z,55.90
2022-12-23T14:31:55.382Z,51.70
2022-12-23T14:34:33.764Z,52.10
2022-12-23T14:37:44.549Z,56.60
2022-12-23T14:40:37.432Z,51.40
2022-12-23T14:43:45.937Z,54.20
2022-12-23T14:46:35.929Z,51.00
2022-12-23T14:49:38.425Z,51.30
2022-12-23T14:52:39.360Z,56.20
2022-12-23T14:55:32.826Z,52.00
2022-12-23T14:58:10.764Z,55.60
2022-12-23T15:00:57.177Z,51.80
2022-12-23T15:03:42.341Z,50.70
2022-12-23T15:06:32.235Z,54.30
2022-12-23T15:09:01.881Z,54.70
2022-12-23T15:11:34.016Z,52.50
2022-12-23T15:14:11.636Z,54.40
2022-12-23T15:16:40.527Z,53.70
2022-12-23T15:19:22.843Z,59.80
2022-12-23T15:22:15.364Z,59.40
2022-12-23T15:24:49.272Z,52.50
2022-12-23T15:27:29.734Z,55.00
2022-12-23T15:29:58.754Z,57.80
2022-12-23T15:32:29.292Z,55.20
2022-12-23T15:35:06.187Z,55.00
2022-12-23T15:37:35.156Z,58.50
2022-12-23T15:40:12.195Z,58.60
2022-12-23T15:42:48.965Z,56.70
2022-12-23T15:45:23.139Z,53.90
2022-12-23T15:47:51.418Z,53.10
2022-12-23T15:50:21.030Z,61.40
2022-12-23T15:52:50.956Z,58.50
2022-12-23T15:55:32.243Z,62.10
2022-12-23T15:58:02.676Z,56.70
2022-12-23T16:00:49.403Z,59.10
2022-12-23T16:03:34.598Z,61.80
2022-12-23T16:06:25.446Z,61.00
2022-12-23T16:09:06.930Z,56.20
2022-12-23T16:11:54.727Z,66.10
2022-12-23T16:14:41.997Z,69.00
2022-12-23T16:17:16.184Z,71.00
2022-12-23T16:19:50.150Z,66.90
2022-12-23T16:22:31.211Z,68.80
2022-12-23T16:25:05.135Z,67.70
2022-12-23T16:27:58.262Z,54.00
2022-12-23T16:30:33.637Z,66.40
2022-12-23T16:33:22.496Z,68.50
2022-12-23T16:35:53.573Z,63.40
2022-12-23T16:38:26.627Z,64.60
2022-12-23T16:40:56.997Z,60.90
2022-12-23T16:43:26.174Z,66.30
2022-12-23T16:45:57.511Z,62.00
2022-12-23T16:48:33.147Z,73.20
2022-12-23T16:51:05.865Z,71.10
2022-12-23T16:53:34.940Z,65.80
2022-12-23T16:56:09.896Z,65.10
2022-12-23T16:58:38.267Z,54.60
2022-12-23T17:01:06.637Z,63.30
2022-12-23T17:03:34.975Z,60.10
2022-12-23T17:06:03.180Z,60.80
2022-12-23T17:08:31.354Z,61.90
2022-12-23T17:10:59.514Z,66.80
2022-12-23T17:13:27.670Z,63.70
2022-12-23T17:15:55.782Z,52.10
2022-12-23T17:18:23.915Z,63.60
2022-12-23T17:20:52.132Z,68.30
2022-12-23T17:23:32.569Z,66.70
2022-12-23T17:26:00.787Z,61.80
2022-12-23T17:28:32.647Z,63.00
2022-12-23T17:31:01.086Z,64.60
2022-12-23T17:33:32.367Z,63.00
2022-12-23T17:36:00.576Z,66.00
2022-12-23T17:38:31.836Z,63.60
2022-12-23T17:40:59.956Z,57.50
2022-12-23T17:43:28.155Z,58.10
2022-12-23T17:45:56.464Z,71.00
2022-12-23T17:48:31.082Z,64.30
2022-12-23T17:50:59.778Z,61.50
2022-12-23T17:53:27.978Z,65.20
2022-12-23T17:55:56.095Z,56.40
2022-12-23T17:58:24.289Z,55.70
2022-12-23T18:00:52.416Z,55.00
2022-12-23T18:03:23.674Z,53.50
2022-12-23T18:06:00.883Z,60.60
2022-12-23T18:08:29.669Z,59.60
2022-12-23T18:10:59.440Z,56.60
2022-12-23T18:13:27.620Z,51.40
2022-12-23T18:15:55.805Z,55.20
2022-12-23T18:18:32.103Z,60.30
2022-12-23T18:21:05.542Z,57.40
2022-12-23T18:23:34.618Z,58.00
2022-12-23T18:26:03.117Z,56.10
2022-12-23T18:28:31.243Z,56.30
2022-12-23T18:30:59.616Z,56.60
2022-12-23T18:33:29.583Z,60.30
2022-12-23T18:35:57.948Z,56.60
2022-12-23T18:38:26.120Z,65.50
2022-12-23T18:40:56.703Z,66.10
2022-12-23T18:43:25.770Z,64.30
2022-12-23T18:45:54.459Z,59.60
2022-12-23T18:48:22.768Z,57.40
2022-12-23T18:50:50.886Z,55.60
2022-12-23T18:53:25.110Z,56.50
2022-12-23T18:55:54.944Z,53.20
2022-12-23T18:58:23.396Z,55.30
2022-12-23T19:00:55.367Z,57.10
2022-12-23T19:03:31.700Z,50.80
2022-12-23T19:06:06.750Z,60.80
2022-12-23T19:08:37.023Z,58.10
2022-12-23T19:11:18.621Z,60.50
2022-12-23T19:13:47.951Z,59.40
2022-12-23T19:16:19.570Z,58.60
2022-12-23T19:18:49.545Z,67.50
2022-12-23T19:21:18.871Z,60.50
2022-12-23T19:23:47.071Z,61.40
2022-12-23T19:26:15.621Z,63.90
2022-12-23T19:28:43.835Z,58.50
2022-12-23T19:31:14.738Z,61.10
2022-12-23T19:33:47.488Z,60.00
2022-12-23T19:36:25.284Z,61.50
2022-12-23T19:38:53.592Z,63.20
2022-12-23T19:41:21.813Z,60.40
2022-12-23T19:43:50.121Z,60.20
2022-12-23T19:46:18.595Z,62.20
2022-12-23T19:48:52.408Z,66.70
2022-12-23T19:51:20.713Z,65.90
2022-12-23T19:53:51.373Z,55.00
2022-12-23T19:56:23.262Z,64.20
2022-12-23T19:58:51.429Z,59.90
2022-12-23T20:01:24.173Z,66.20
2022-12-23T20:03:55.257Z,59.70
2022-12-23T20:06:27.881Z,63.00
2022-12-23T20:09:00.817Z,62.10
2022-12-23T20:11:33.252Z,64.80
2022-12-23T20:14:02.545Z,63.00
2022-12-23T20:16:31.679Z,59.70
2022-12-23T20:18:59.979Z,59.80
2022-12-23T20:21:28.298Z,61.80
2022-12-23T20:23:56.692Z,60.50
2022-12-23T20:26:25.037Z,62.30
2022-12-23T20:28:53.526Z,58.80
2022-12-23T20:31:25.065Z,63.10
2022-12-23T20:33:55.171Z,64.90
2022-12-23T20:36:30.257Z,72.60
2022-12-23T20:38:58.912Z,70.40
2022-12-23T20:41:28.900Z,68.30
2022-12-23T20:46:46.471Z,59.20
2022-12-23T20:49:14.607Z,62.00
2022-12-23T20:51:42.795Z,64.90
2022-12-23T20:54:11.054Z,68.50
2022-12-23T20:56:39.162Z,74.00
2022-12-23T20:59:07.311Z,62.60
2022-12-23T21:01:40.802Z,66.10
2022-12-23T21:04:18.122Z,62.50
2022-12-23T21:06:46.297Z,67.00
2022-12-23T21:09:15.727Z,66.10
2022-12-23T21:11:47.128Z,66.70
2022-12-23T21:14:16.175Z,67.70
2022-12-23T21:16:44.964Z,65.10
2022-12-23T21:19:20.313Z,61.80
2022-12-23T21:21:49.652Z,65.70
2022-12-23T21:24:19.171Z,70.20
2022-12-23T21:26:55.661Z,73.30
2022-12-23T21:29:25.870Z,67.70
2022-12-23T21:31:55.207Z,65.00
2022-12-23T21:34:23.816Z,67.40
2022-12-23T21:36:51.983Z,65.10
2022-12-23T21:39:20.116Z,63.90
2022-12-23T21:41:51.031Z,61.60
2022-12-23T21:44:19.275Z,61.10
2022-12-23T21:46:51.029Z,66.40
2022-12-23T21:49:20.411Z,58.80
2022-12-23T21:51:48.596Z,67.40
2022-12-23T21:54:16.732Z,65.20
2022-12-23T21:56:44.966Z,64.60
2022-12-23T21:59:15.014Z,66.50
2022-12-23T22:01:43.474Z,63.00
2022-12-23T22:04:12.435Z,64.40
2022-12-23T22:06:43.904Z,67.90
2022-12-23T22:09:18.731Z,63.80
2022-12-23T22:11:48.203Z,66.70
2022-12-23T22:14:19.700Z,70.90
2022-12-23T22:16:48.077Z,64.20
2022-12-23T22:19:16.920Z,72.00
2022-12-23T22:21:45.107Z,69.30
2022-12-23T22:24:13.297Z,67.60
2022-12-23T22:26:41.959Z,70.80
2022-12-23T22:29:11.378Z,65.80
2022-12-23T22:31:50.664Z,63.90
2022-12-23T22:34:22.224Z,66.40
2022-12-23T22:36:51.086Z,67.70
2022-12-23T22:39:21.912Z,66.00
2022-12-23T22:41:51.838Z,72.30
2022-12-23T22:44:20.961Z,67.00
2022-12-23T22:46:49.865Z,66.20
2022-12-23T22:49:18.571Z,66.40
2022-12-23T22:51:46.767Z,58.40
2022-12-23T22:54:14.992Z,55.20
2022-12-23T22:56:45.852Z,64.10
2022-12-23T22:59:25.654Z,69.30
2022-12-23T23:01:54.512Z,67.80
2022-12-23T23:04:23.054Z,63.10
2022-12-23T23:06:51.156Z,63.00
2022-12-23T23:09:21.559Z,61.00
2022-12-23T23:11:51.222Z,61.30
2022-12-23T23:14:20.310Z,62.30
2022-12-23T23:16:48.634Z,60.80
2022-12-23T23:19:20.370Z,61.00
2022-12-23T23:21:48.949Z,63.90
2022-12-23T23:24:17.638Z,57.70
2022-12-23T23:26:45.888Z,63.70
2022-12-23T23:29:14.403Z,65.50
2022-12-23T23:31:43.939Z,64.50
2022-12-23T23:34:13.779Z,61.80
2022-12-23T23:36:42.187Z,69.70
2022-12-23T23:39:12.733Z,67.60
2022-12-23T23:41:41.858Z,67.50
2022-12-23T23:44:11.780Z,64.90
2022-12-23T23:46:40.407Z,64.20
2022-12-23T23:49:08.659Z,66.30
2022-12-23T23:51:37.225Z,60.60
2022-12-23T23:54:06.981Z,61.50
2022-12-23T23:56:38.533Z,59.60
